sensor_id;sensor_type;location;lat;lon;timestamp;P1;durP1;ratioP1;P2;durP2;ratioP2
80651;SDS011;72406;47.060;-122.886;2023-08-24T17:21:08;6.72;;;3.67;;
80651;SDS011;72406;47.060;-122.886;2023-08-24T17:23:34;5.45;;;3.83;;
80651;SDS011;72406;47.060;-122.886;2023-08-24T17:26:01;5.53;;;3.50;;
80651;SDS011;72406;47.060;-122.886;2023-08-24T17:28:27;6.15;;;4.28;;
80651;SDS011;72406;47.060;-122.886;2023-08-24T17:30:53;6.80;;;3.88;;
80651;SDS011;72406;47.060;-122.886;2023-08-24T17:33:19;4.47;;;3.60;;
80651;SDS011;72406;47.060;-122.886;2023-08-24T17:35:48;8.05;;;3.72;;
80651;SDS011;72406;47.060;-122.886;2023-08-24T17:38:15;6.95;;;3.40;;
80651;SDS011;72406;47.060;-122.886;2023-08-24T17:40:42;7.88;;;4.10;;
80651;SDS011;72406;47.060;-122.886;2023-08-24T17:43:08;6.95;;;3.63;;
80651;SDS011;72406;47.060;-122.886;2023-08-24T17:45:34;6.20;;;4.07;;
80651;SDS011;72406;47.060;-122.886;2023-08-24T17:48:00;4.80;;;3.60;;
80651;SDS011;72406;47.060;-122.886;2023-08-24T17:50:26;6.55;;;4.55;;
80651;SDS011;72406;47.060;-122.886;2023-08-24T17:52:52;7.03;;;4.47;;
80651;SDS011;72406;47.060;-122.886;2023-08-24T17:55:19;6.40;;;3.88;;
80651;SDS011;72406;47.060;-122.886;2023-08-24T17:57:45;5.15;;;4.10;;
80651;SDS011;72406;47.060;-122.886;2023-08-24T18:00:12;7.82;;;4.38;;
80651;SDS011;72406;47.060;-122.886;2023-08-24T18:02:38;6.75;;;4.38;;
80651;SDS011;72406;47.060;-122.886;2023-08-24T18:05:06;6.65;;;4.35;;
80651;SDS011;72406;47.060;-122.886;2023-08-24T18:07:32;8.73;;;5.05;;
80651;SDS011;72406;47.060;-122.886;2023-08-24T18:09:58;5.88;;;4.63;;
80651;SDS011;72406;47.060;-122.886;2023-08-24T18:12:24;7.35;;;4.72;;
80651;SDS011;72406;47.060;-122.886;2023-08-24T18:14:50;7.63;;;4.80;;
80651;SDS011;72406;47.060;-122.886;2023-08-24T18:17:17;6.93;;;4.70;;
80651;SDS011;72406;47.060;-122.886;2023-08-24T18:19:43;8.38;;;5.30;;
80651;SDS011;72406;47.060;-122.886;2023-08-24T18:22:09;8.93;;;5.57;;
80651;SDS011;72406;47.060;-122.886;2023-08-24T18:24:35;9.00;;;5.82;;
80651;SDS011;72406;47.060;-122.886;2023-08-24T18:27:01;6.78;;;4.88;;
80651;SDS011;72406;47.060;-122.886;2023-08-24T18:29:28;10.23;;;5.82;;
80651;SDS011;72406;47.060;-122.886;2023-08-24T18:31:54;8.10;;;5.10;;
80651;SDS011;72406;47.060;-122.886;2023-08-24T18:34:23;7.78;;;5.13;;
80651;SDS011;72406;47.060;-122.886;2023-08-24T18:36:50;6.50;;;4.55;;
80651;SDS011;72406;47.060;-122.886;2023-08-24T18:39:17;7.28;;;4.40;;
80651;SDS011;72406;47.060;-122.886;2023-08-24T18:41:43;10.35;;;5.43;;
80651;SDS011;72406;47.060;-122.886;2023-08-24T18:44:09;7.50;;;5.50;;
80651;SDS011;72406;47.060;-122.886;2023-08-24T18:46:36;9.05;;;5.85;;
80651;SDS011;72406;47.060;-122.886;2023-08-24T18:49:02;8.20;;;5.93;;
80651;SDS011;72406;47.060;-122.886;2023-08-24T18:51:28;7.75;;;4.95;;
80651;SDS011;72406;47.060;-122.886;2023-08-24T18:53:54;7.63;;;5.10;;
80651;SDS011;72406;47.060;-122.886;2023-08-24T18:56:21;7.47;;;5.10;;
80651;SDS011;72406;47.060;-122.886;2023-08-24T18:58:47;8.55;;;5.07;;
80651;SDS011;72406;47.060;-122.886;2023-08-24T19:01:13;8.20;;;5.28;;
80651;SDS011;72406;47.060;-122.886;2023-08-24T19:03:43;7.63;;;5.22;;
80651;SDS011;72406;47.060;-122.886;2023-08-24T19:06:09;8.55;;;4.95;;
80651;SDS011;72406;47.060;-122.886;2023-08-24T19:08:35;7.18;;;5.13;;
80651;SDS011;72406;47.060;-122.886;2023-08-24T19:11:02;8.70;;;6.03;;
80651;SDS011;72406;47.060;-122.886;2023-08-24T19:13:28;9.43;;;6.00;;
80651;SDS011;72406;47.060;-122.886;2023-08-24T19:16:00;7.65;;;5.22;;
80651;SDS011;72406;47.060;-122.886;2023-08-24T19:18:27;7.20;;;5.35;;
80651;SDS011;72406;47.060;-122.886;2023-08-24T19:20:53;10.35;;;5.65;;
80651;SDS011;72406;47.060;-122.886;2023-08-24T19:23:19;7.65;;;5.32;;
80651;SDS011;72406;47.060;-122.886;2023-08-24T19:25:45;10.93;;;5.75;;
80651;SDS011;72406;47.060;-122.886;2023-08-24T19:28:11;8.75;;;5.60;;
80651;SDS011;72406;47.060;-122.886;2023-08-24T19:30:49;9.95;;;5.93;;
80651;SDS011;72406;47.060;-122.886;2023-08-24T19:33:20;8.35;;;6.40;;
80651;SDS011;72406;47.060;-122.886;2023-08-24T19:35:46;12.35;;;5.30;;
80651;SDS011;72406;47.060;-122.886;2023-08-24T19:38:12;7.88;;;5.97;;
80651;SDS011;72406;47.060;-122.886;2023-08-24T19:40:39;10.20;;;6.22;;
80651;SDS011;72406;47.060;-122.886;2023-08-24T19:43:05;8.52;;;5.60;;
80651;SDS011;72406;47.060;-122.886;2023-08-24T19:45:37;9.65;;;6.07;;
80651;SDS011;72406;47.060;-122.886;2023-08-24T19:48:04;9.18;;;5.97;;
80651;SDS011;72406;47.060;-122.886;2023-08-24T19:50:30;10.07;;;6.30;;
80651;SDS011;72406;47.060;-122.886;2023-08-24T19:53:00;8.00;;;6.18;;
80651;SDS011;72406;47.060;-122.886;2023-08-24T19:55:26;9.70;;;6.40;;
80651;SDS011;72406;47.060;-122.886;2023-08-24T19:57:53;9.27;;;6.03;;
80651;SDS011;72406;47.060;-122.886;2023-08-24T20:00:20;12.70;;;6.50;;
80651;SDS011;72406;47.060;-122.886;2023-08-24T20:02:47;8.98;;;5.97;;
80651;SDS011;72406;47.060;-122.886;2023-08-24T20:05:13;9.00;;;6.30;;
80651;SDS011;72406;47.060;-122.886;2023-08-24T20:07:40;10.23;;;6.35;;
80651;SDS011;72406;47.060;-122.886;2023-08-24T20:10:13;11.52;;;6.50;;
80651;SDS011;72406;47.060;-122.886;2023-08-24T20:12:39;11.00;;;6.28;;
80651;SDS011;72406;47.060;-122.886;2023-08-24T20:15:06;15.82;;;7.28;;
80651;SDS011;72406;47.060;-122.886;2023-08-24T20:17:44;10.82;;;6.53;;
80651;SDS011;72406;47.060;-122.886;2023-08-24T20:20:11;8.00;;;5.68;;
80651;SDS011;72406;47.060;-122.886;2023-08-24T20:22:41;8.35;;;5.53;;
80651;SDS011;72406;47.060;-122.886;2023-08-24T20:25:08;9.77;;;6.55;;
80651;SDS011;72406;47.060;-122.886;2023-08-24T20:27:34;9.32;;;6.22;;
80651;SDS011;72406;47.060;-122.886;2023-08-24T20:30:01;11.10;;;6.40;;
80651;SDS011;72406;47.060;-122.886;2023-08-24T20:32:27;10.30;;;6.35;;
80651;SDS011;72406;47.060;-122.886;2023-08-24T20:34:54;9.85;;;6.97;;
80651;SDS011;72406;47.060;-122.886;2023-08-24T20:37:20;9.52;;;6.53;;
80651;SDS011;72406;47.060;-122.886;2023-08-24T20:39:46;9.02;;;6.18;;
80651;SDS011;72406;47.060;-122.886;2023-08-24T20:42:16;9.43;;;6.90;;
80651;SDS011;72406;47.060;-122.886;2023-08-24T20:44:44;10.48;;;7.03;;
80651;SDS011;72406;47.060;-122.886;2023-08-24T20:47:11;11.98;;;7.13;;
80651;SDS011;72406;47.060;-122.886;2023-08-24T20:49:38;13.23;;;6.72;;
80651;SDS011;72406;47.060;-122.886;2023-08-24T20:52:04;12.38;;;6.75;;
80651;SDS011;72406;47.060;-122.886;2023-08-24T20:54:31;10.43;;;6.32;;
80651;SDS011;72406;47.060;-122.886;2023-08-24T20:56:58;12.23;;;7.30;;
80651;SDS011;72406;47.060;-122.886;2023-08-24T20:59:24;9.93;;;6.90;;
80651;SDS011;72406;47.060;-122.886;2023-08-24T21:01:50;10.05;;;7.72;;
80651;SDS011;72406;47.060;-122.886;2023-08-24T21:04:16;11.15;;;7.55;;
80651;SDS011;72406;47.060;-122.886;2023-08-24T21:06:43;11.50;;;7.15;;
80651;SDS011;72406;47.060;-122.886;2023-08-24T21:09:10;10.75;;;6.65;;
80651;SDS011;72406;47.060;-122.886;2023-08-24T21:11:36;10.43;;;7.10;;
80651;SDS011;72406;47.060;-122.886;2023-08-24T21:14:02;9.82;;;6.93;;
80651;SDS011;72406;47.060;-122.886;2023-08-24T21:16:29;10.30;;;7.05;;
80651;SDS011;72406;47.060;-122.886;2023-08-24T21:18:55;10.55;;;7.32;;
80651;SDS011;72406;47.060;-122.886;2023-08-24T21:21:21;9.57;;;7.28;;
80651;SDS011;72406;47.060;-122.886;2023-08-24T21:23:47;11.27;;;7.68;;
80651;SDS011;72406;47.060;-122.886;2023-08-24T21:26:13;10.88;;;8.18;;
80651;SDS011;72406;47.060;-122.886;2023-08-24T21:28:39;10.63;;;7.22;;
80651;SDS011;72406;47.060;-122.886;2023-08-24T21:31:06;11.73;;;7.30;;
80651;SDS011;72406;47.060;-122.886;2023-08-24T21:33:32;12.27;;;7.32;;
80651;SDS011;72406;47.060;-122.886;2023-08-24T21:35:58;8.98;;;6.55;;
80651;SDS011;72406;47.060;-122.886;2023-08-24T21:38:24;11.45;;;7.55;;
80651;SDS011;72406;47.060;-122.886;2023-08-24T21:40:50;10.77;;;7.57;;
80651;SDS011;72406;47.060;-122.886;2023-08-24T21:43:17;10.30;;;7.25;;
80651;SDS011;72406;47.060;-122.886;2023-08-24T21:45:43;10.70;;;7.50;;
80651;SDS011;72406;47.060;-122.886;2023-08-24T21:48:09;12.25;;;7.28;;
80651;SDS011;72406;47.060;-122.886;2023-08-24T21:50:35;9.88;;;6.93;;
80651;SDS011;72406;47.060;-122.886;2023-08-24T21:53:02;11.77;;;8.60;;
80651;SDS011;72406;47.060;-122.886;2023-08-24T21:55:28;10.98;;;7.72;;
80651;SDS011;72406;47.060;-122.886;2023-08-24T21:57:55;10.32;;;7.55;;
80651;SDS011;72406;47.060;-122.886;2023-08-24T22:00:22;11.57;;;7.82;;
80651;SDS011;72406;47.060;-122.886;2023-08-24T22:02:49;11.20;;;6.90;;
80651;SDS011;72406;47.060;-122.886;2023-08-24T22:05:15;8.88;;;6.63;;
80651;SDS011;72406;47.060;-122.886;2023-08-24T22:07:41;11.18;;;6.90;;
80651;SDS011;72406;47.060;-122.886;2023-08-24T22:10:07;11.73;;;7.82;;
80651;SDS011;72406;47.060;-122.886;2023-08-24T22:12:34;10.70;;;7.55;;
80651;SDS011;72406;47.060;-122.886;2023-08-24T22:15:00;12.10;;;7.30;;
80651;SDS011;72406;47.060;-122.886;2023-08-24T22:17:26;11.15;;;7.97;;
80651;SDS011;72406;47.060;-122.886;2023-08-24T22:19:52;11.48;;;7.78;;
80651;SDS011;72406;47.060;-122.886;2023-08-24T22:22:19;10.90;;;7.85;;
80651;SDS011;72406;47.060;-122.886;2023-08-24T22:24:45;12.00;;;8.27;;
80651;SDS011;72406;47.060;-122.886;2023-08-24T22:27:12;12.05;;;7.85;;
80651;SDS011;72406;47.060;-122.886;2023-08-24T22:29:38;12.45;;;8.32;;
80651;SDS011;72406;47.060;-122.886;2023-08-24T22:32:05;10.88;;;7.20;;
80651;SDS011;72406;47.060;-122.886;2023-08-24T22:34:35;11.07;;;7.75;;
80651;SDS011;72406;47.060;-122.886;2023-08-24T22:37:02;12.68;;;8.35;;
80651;SDS011;72406;47.060;-122.886;2023-08-24T22:39:28;11.98;;;7.60;;
80651;SDS011;72406;47.060;-122.886;2023-08-24T22:41:54;12.10;;;7.63;;
80651;SDS011;72406;47.060;-122.886;2023-08-24T22:44:20;14.30;;;8.27;;
80651;SDS011;72406;47.060;-122.886;2023-08-24T22:46:47;10.68;;;7.72;;
80651;SDS011;72406;47.060;-122.886;2023-08-24T22:49:13;13.25;;;8.23;;
80651;SDS011;72406;47.060;-122.886;2023-08-24T22:51:40;10.38;;;8.07;;
80651;SDS011;72406;47.060;-122.886;2023-08-24T22:54:06;11.75;;;7.60;;
80651;SDS011;72406;47.060;-122.886;2023-08-24T22:56:35;9.85;;;7.20;;
80651;SDS011;72406;47.060;-122.886;2023-08-24T22:59:02;10.35;;;7.25;;
80651;SDS011;72406;47.060;-122.886;2023-08-24T23:01:28;11.32;;;8.07;;
80651;SDS011;72406;47.060;-122.886;2023-08-24T23:03:54;12.70;;;8.43;;
80651;SDS011;72406;47.060;-122.886;2023-08-24T23:06:21;11.80;;;8.20;;
80651;SDS011;72406;47.060;-122.886;2023-08-24T23:08:47;11.05;;;8.25;;
80651;SDS011;72406;47.060;-122.886;2023-08-24T23:11:15;16.00;;;8.60;;
80651;SDS011;72406;47.060;-122.886;2023-08-24T23:13:41;12.93;;;8.35;;
80651;SDS011;72406;47.060;-122.886;2023-08-24T23:16:08;12.55;;;8.65;;
80651;SDS011;72406;47.060;-122.886;2023-08-24T23:18:34;12.27;;;8.98;;
80651;SDS011;72406;47.060;-122.886;2023-08-24T23:21:00;14.15;;;8.52;;
80651;SDS011;72406;47.060;-122.886;2023-08-24T23:23:27;15.75;;;10.00;;
80651;SDS011;72406;47.060;-122.886;2023-08-24T23:25:53;12.05;;;9.23;;
80651;SDS011;72406;47.060;-122.886;2023-08-24T23:28:19;13.07;;;8.98;;
80651;SDS011;72406;47.060;-122.886;2023-08-24T23:30:45;13.90;;;9.25;;
80651;SDS011;72406;47.060;-122.886;2023-08-24T23:33:12;12.65;;;9.10;;
80651;SDS011;72406;47.060;-122.886;2023-08-24T23:35:43;14.48;;;8.50;;
80651;SDS011;72406;47.060;-122.886;2023-08-24T23:38:09;11.23;;;8.77;;
80651;SDS011;72406;47.060;-122.886;2023-08-24T23:40:35;14.10;;;9.18;;
80651;SDS011;72406;47.060;-122.886;2023-08-24T23:43:04;15.32;;;10.43;;
80651;SDS011;72406;47.060;-122.886;2023-08-24T23:45:30;14.80;;;9.48;;
80651;SDS011;72406;47.060;-122.886;2023-08-24T23:47:57;13.65;;;9.95;;
80651;SDS011;72406;47.060;-122.886;2023-08-24T23:50:23;14.80;;;9.25;;
80651;SDS011;72406;47.060;-122.886;2023-08-24T23:52:49;14.82;;;10.77;;
80651;SDS011;72406;47.060;-122.886;2023-08-24T23:55:15;14.75;;;9.95;;
80651;SDS011;72406;47.060;-122.886;2023-08-24T23:57:42;14.65;;;10.13;;
